Time;durP1;ratioP1;P1;durP2;ratioP2;P2;SDS_P1;SDS_P2;PMS_P1;PMS_P2;Temp;Humidity;BMP_temperature;BMP_pressure;BME280_temperature;BME280_humidity;BME280_pressure;Samples;Min_cycle;Max_cycle;Signal;HPM_P1;HPM_P2
2023/12/10 00:01:30;;;;;;;1.83;1.20;;;;;;;-0.75;100.00;99387.25;5091103;28;20202;-60
2023/12/10 00:03:57;;;;;;;1.63;1.53;;;;;;;-0.81;100.00;99389.91;5090822;28;20593;-60
2023/12/10 00:06:25;;;;;;;1.03;1.03;;;;;;;-0.73;100.00;99393.06;5090687;28;20616;-60
2023/12/10 00:08:52;;;;;;;2.07;1.73;;;;;;;-0.64;100.00;99381.16;5090578;28;20225;-60
2023/12/10 00:11:19;;;;;;;1.80;1.27;;;;;;;-0.95;100.00;99387.66;5090966;28;20206;-60
2023/12/10 00:13:46;;;;;;;0.90;0.90;;;;;;;-1.03;100.00;99383.66;5090527;28;20202;-60
2023/12/10 00:16:13;;;;;;;1.90;1.40;;;;;;;-0.87;100.00;99390.03;5090680;28;20210;-60
2023/12/10 00:18:39;;;;;;;1.30;1.07;;;;;;;-0.72;100.00;99388.88;5090563;28;20596;-60
2023/12/10 00:21:07;;;;;;;0.93;0.93;;;;;;;-0.55;100.00;99375.97;5090476;28;20598;-60
2023/12/10 00:23:35;;;;;;;1.33;1.03;;;;;;;-0.48;100.00;99380.78;5090412;28;20208;-60
2023/12/10 00:26:02;;;;;;;1.53;1.40;;;;;;;-0.46;100.00;99383.28;5090379;28;20951;-60
2023/12/10 00:28:29;;;;;;;1.20;1.13;;;;;;;-0.48;100.00;99382.47;5090555;28;20202;-60
2023/12/10 00:30:56;;;;;;;1.87;1.70;;;;;;;-0.53;100.00;99374.22;5090502;28;20222;-60
2023/12/10 00:33:23;;;;;;;1.33;0.83;;;;;;;-0.55;100.00;99368.44;5090533;28;20194;-61
2023/12/10 00:35:50;;;;;;;0.97;0.97;;;;;;;-0.50;100.00;99364.09;5090171;28;20202;-61
2023/12/10 00:38:16;;;;;;;4.60;1.33;;;;;;;-0.62;100.00;99369.41;5090218;28;20390;-60
2023/12/10 00:40:46;;;;;;;6.00;2.23;;;;;;;-0.69;100.00;99362.00;5090208;28;20228;-60
2023/12/10 00:43:14;;;;;;;0.93;0.93;;;;;;;-0.68;100.00;99356.13;5090212;28;20213;-60
2023/12/10 00:45:41;;;;;;;4.43;1.77;;;;;;;-0.75;100.00;99348.78;5090196;28;20251;-60
2023/12/10 00:48:08;;;;;;;2.10;1.80;;;;;;;-0.84;100.00;99349.81;5090052;28;20603;-60
2023/12/10 00:50:35;;;;;;;0.63;0.63;;;;;;;-0.77;100.00;99341.25;5089657;28;20671;-60
2023/12/10 00:53:03;;;;;;;1.40;1.30;;;;;;;-0.81;100.00;99342.19;5089821;28;20229;-60
2023/12/10 00:55:30;;;;;;;0.67;0.67;;;;;;;-1.03;100.00;99328.47;5089977;28;20323;-60
2023/12/10 00:57:58;;;;;;;0.80;0.77;;;;;;;-0.98;100.00;99327.50;5090118;28;20198;-60
2023/12/10 01:00:25;;;;;;;0.60;0.60;;;;;;;-0.97;100.00;99323.31;5089956;28;20199;-60
2023/12/10 01:02:52;;;;;;;1.53;0.73;;;;;;;-1.17;100.00;99322.03;5089835;28;20195;-60
2023/12/10 01:05:19;;;;;;;3.23;1.03;;;;;;;-1.11;100.00;99307.72;5089768;28;20237;-60
2023/12/10 01:07:46;;;;;;;1.93;0.67;;;;;;;-1.12;100.00;99301.06;5089688;28;20883;-60
2023/12/10 01:10:13;;;;;;;1.03;0.93;;;;;;;-1.13;100.00;99312.78;5089763;28;20882;-60
2023/12/10 01:12:40;;;;;;;0.97;0.97;;;;;;;-1.14;100.00;99301.91;5089810;28;20448;-60
2023/12/10 01:15:10;;;;;;;1.53;1.43;;;;;;;-1.16;100.00;99308.66;5089451;28;20201;-60
2023/12/10 01:17:37;;;;;;;0.73;0.73;;;;;;;-1.20;100.00;99316.25;5089440;28;20760;-61
2023/12/10 01:20:04;;;;;;;3.80;2.83;;;;;;;-1.18;100.00;99329.59;5089170;28;20462;-60
2023/12/10 01:22:31;;;;;;;2.53;1.43;;;;;;;-1.05;100.00;99310.09;5089024;28;20440;-60
2023/12/10 01:24:58;;;;;;;1.17;1.10;;;;;;;-1.02;100.00;99315.88;5087975;28;20220;-61
2023/12/10 01:27:25;;;;;;;1.77;1.67;;;;;;;-1.07;100.00;99319.34;5088356;28;21295;-60
2023/12/10 01:29:52;;;;;;;2.20;1.93;;;;;;;-1.09;100.00;99328.59;5089260;28;20206;-60
2023/12/10 01:32:21;;;;;;;1.27;1.17;;;;;;;-1.15;100.00;99310.28;5089204;28;20208;-61
2023/12/10 01:34:48;;;;;;;2.73;1.50;;;;;;;-1.06;100.00;99323.50;5088411;28;20718;-60
2023/12/10 01:37:15;;;;;;;0.77;0.77;;;;;;;-0.99;100.00;99314.97;5089083;28;20573;-60
2023/12/10 01:39:42;;;;;;;1.47;1.37;;;;;;;-0.96;100.00;99308.22;5089000;28;20723;-60
2023/12/10 01:42:09;;;;;;;3.77;2.57;;;;;;;-0.92;100.00;99311.50;5089528;28;20198;-60
2023/12/10 01:44:36;;;;;;;3.50;2.47;;;;;;;-0.90;100.00;99309.78;5088850;28;20205;-61
2023/12/10 01:47:04;;;;;;;3.60;1.60;;;;;;;-0.86;100.00;99306.34;5089230;28;20230;-61
2023/12/10 01:49:32;;;;;;;0.93;0.40;;;;;;;-0.83;100.00;99297.91;5089123;28;20202;-61
2023/12/10 01:51:59;;;;;;;3.23;1.90;;;;;;;-0.84;100.00;99303.78;5088924;28;20202;-60
2023/12/10 01:54:26;;;;;;;1.17;0.93;;;;;;;-0.93;100.00;99307.34;5088846;28;20201;-60
2023/12/10 01:56:55;;;;;;;1.87;1.60;;;;;;;-1.00;100.00;99306.63;5088873;28;20201;-61
2023/12/10 01:59:22;;;;;;;0.40;0.40;;;;;;;-1.01;100.00;99302.47;5088756;28;20206;-60
2023/12/10 02:01:50;;;;;;;1.00;1.00;;;;;;;-0.98;100.00;99301.59;5088678;28;20257;-61
2023/12/10 02:04:17;;;;;;;5.03;2.50;;;;;;;-0.99;100.00;99299.91;5089267;28;20251;-60
2023/12/10 02:06:45;;;;;;;2.53;1.73;;;;;;;-0.87;100.00;99304.69;5088347;28;20622;-61
2023/12/10 02:09:18;;;;;;;4.07;2.00;;;;;;;-0.97;100.00;99298.22;5088880;28;20202;-60
2023/12/10 02:11:45;;;;;;;1.23;0.80;;;;;;;-1.05;100.00;99295.03;5088438;28;20193;-61
2023/12/10 02:14:12;;;;;;;2.07;1.87;;;;;;;-0.94;100.00;99300.66;5088547;28;20223;-60
2023/12/10 02:16:39;;;;;;;2.23;1.30;;;;;;;-0.97;100.00;99293.19;5088739;28;20194;-60
2023/12/10 02:19:06;;;;;;;1.00;1.00;;;;;;;-0.83;100.00;99286.19;5088489;28;20194;-60
2023/12/10 02:21:35;;;;;;;1.23;1.20;;;;;;;-0.93;100.00;99295.63;5088488;28;20202;-60
2023/12/10 02:24:06;;;;;;;1.97;1.83;;;;;;;-0.94;100.00;99283.91;5088416;28;20213;-60
2023/12/10 02:26:35;;;;;;;2.40;1.97;;;;;;;-0.89;100.00;99285.50;5088303;28;20245;-60
2023/12/10 02:29:03;;;;;;;2.03;1.87;;;;;;;-0.95;100.00;99291.47;5088340;28;20634;-60
2023/12/10 02:31:30;;;;;;;1.57;1.53;;;;;;;-1.09;100.00;99293.47;5088597;28;20197;-60
2023/12/10 02:33:57;;;;;;;0.97;0.93;;;;;;;-0.94;100.00;99286.41;5088413;28;20211;-61
2023/12/10 02:36:24;;;;;;;1.50;1.40;;;;;;;-0.95;100.00;99278.94;5088322;28;20209;-60
2023/12/10 02:38:52;;;;;;;1.30;0.97;;;;;;;-0.99;100.00;99274.81;5088200;28;20198;-60
2023/12/10 02:41:19;;;;;;;1.13;1.03;;;;;;;-1.02;100.00;99269.88;5088551;28;20199;-60
2023/12/10 02:43:47;;;;;;;1.40;1.27;;;;;;;-0.96;100.00;99260.53;5088338;28;20244;-60
2023/12/10 02:46:14;;;;;;;2.87;2.63;;;;;;;-0.90;100.00;99262.09;5091655;28;20229;-60
2023/12/10 02:48:40;;;;;;;1.63;1.53;;;;;;;-0.94;100.00;99252.97;5092299;28;20198;-60
2023/12/10 02:51:07;;;;;;;0.77;0.77;;;;;;;-0.88;100.00;99247.81;5092182;28;20194;-60
2023/12/10 02:53:34;;;;;;;1.33;1.30;;;;;;;-0.88;100.00;99241.97;5092132;28;20194;-60
2023/12/10 02:56:01;;;;;;;4.70;2.03;;;;;;;-0.97;100.00;99243.81;5092183;28;20202;-60
2023/12/10 02:58:28;;;;;;;4.60;1.30;;;;;;;-1.02;100.00;99239.75;5092202;28;20194;-60
2023/12/10 03:00:56;;;;;;;1.87;1.67;;;;;;;-1.00;100.00;99243.06;5092473;28;20205;-60
2023/12/10 03:03:23;;;;;;;1.77;1.67;;;;;;;-1.03;100.00;99248.16;5092206;28;20693;-60
2023/12/10 03:05:50;;;;;;;1.50;1.30;;;;;;;-0.94;100.00;99250.47;5091857;28;20521;-60
2023/12/10 03:08:17;;;;;;;2.43;1.20;;;;;;;-1.02;100.00;99254.81;5091936;28;20448;-60
2023/12/10 03:10:44;;;;;;;1.27;0.93;;;;;;;-0.99;100.00;99244.72;5091897;28;20212;-60
2023/12/10 03:13:11;;;;;;;3.33;1.90;;;;;;;-0.97;100.00;99245.50;5092131;28;20205;-60
2023/12/10 03:15:37;;;;;;;1.77;1.67;;;;;;;-1.05;100.00;99234.81;5091745;28;20198;-60
2023/12/10 03:18:07;;;;;;;2.30;1.90;;;;;;;-1.06;100.00;99233.19;5092088;28;20209;-60
2023/12/10 03:20:34;;;;;;;1.67;1.57;;;;;;;-0.99;100.00;99234.66;5091681;28;20640;-60
2023/12/10 03:23:02;;;;;;;0.90;0.87;;;;;;;-1.14;100.00;99239.19;5091783;28;20454;-60
2023/12/10 03:25:29;;;;;;;0.53;0.53;;;;;;;-1.17;100.00;99241.75;5091596;28;20277;-60
2023/12/10 03:27:56;;;;;;;0.60;0.60;;;;;;;-1.04;100.00;99247.34;5091992;28;20598;-61
2023/12/10 03:30:23;;;;;;;4.00;1.53;;;;;;;-1.17;100.00;99246.78;5091505;28;20960;-60
2023/12/10 03:32:50;;;;;;;1.27;1.17;;;;;;;-1.20;100.00;99251.03;5091605;28;20224;-60
2023/12/10 03:35:18;;;;;;;1.43;1.13;;;;;;;-1.26;100.00;99252.00;5091643;28;20451;-60
2023/12/10 03:37:45;;;;;;;1.60;1.50;;;;;;;-1.15;100.00;99255.09;5091697;28;20194;-60
2023/12/10 03:40:12;;;;;;;1.10;1.03;;;;;;;-1.03;100.00;99259.03;5091712;28;20615;-61
2023/12/10 03:42:39;;;;;;;2.90;1.93;;;;;;;-1.09;100.00;99248.31;5091614;28;20209;-60
2023/12/10 03:45:07;;;;;;;0.67;0.67;;;;;;;-1.23;100.00;99249.41;5091285;28;20563;-60
2023/12/10 03:47:34;;;;;;;4.23;2.43;;;;;;;-1.17;100.00;99244.25;5091079;28;20234;-60
2023/12/10 03:50:01;;;;;;;3.13;2.07;;;;;;;-1.25;100.00;99248.66;5091148;28;20452;-60
2023/12/10 03:52:29;;;;;;;1.80;1.70;;;;;;;-1.26;100.00;99244.47;5091153;28;20194;-60
2023/12/10 03:54:56;;;;;;;11.07;1.40;;;;;;;-1.28;100.00;99243.69;5090924;28;20961;-60
2023/12/10 03:57:23;;;;;;;1.17;1.10;;;;;;;-1.30;100.00;99245.41;5090680;28;20448;-61
2023/12/10 03:59:50;;;;;;;0.73;0.73;;;;;;;-1.18;100.00;99244.31;5091226;28;20537;-60
2023/12/10 04:02:17;;;;;;;0.77;0.77;;;;;;;-1.28;100.00;99243.69;5091035;28;20205;-60
2023/12/10 04:04:44;;;;;;;1.33;1.23;;;;;;;-1.11;100.00;99245.00;5091047;28;20546;-60
2023/12/10 04:07:11;;;;;;;1.83;1.73;;;;;;;-1.22;100.00;99246.06;5090881;28;20263;-61
2023/12/10 04:09:39;;;;;;;1.87;1.73;;;;;;;-1.18;100.00;99247.63;5090753;28;20202;-61
2023/12/10 04:12:07;;;;;;;3.37;2.57;;;;;;;-1.05;100.00;99242.34;5090970;28;20691;-61
2023/12/10 04:14:34;;;;;;;1.80;1.23;;;;;;;-1.04;100.00;99241.50;5090854;28;20670;-60
2023/12/10 04:17:00;;;;;;;1.80;1.70;;;;;;;-1.23;100.00;99234.38;5090548;28;20895;-60
2023/12/10 04:19:27;;;;;;;1.73;1.47;;;;;;;-1.16;100.00;99232.56;5090592;28;20208;-60
2023/12/10 04:21:54;;;;;;;5.00;1.70;;;;;;;-1.17;100.00;99236.72;5090522;28;20686;-61
2023/12/10 04:24:21;;;;;;;1.50;1.23;;;;;;;-1.38;100.00;99243.06;5090551;28;20833;-60
2023/12/10 04:26:49;;;;;;;2.33;2.13;;;;;;;-1.35;100.00;99231.31;5090525;28;20233;-60
2023/12/10 04:29:16;;;;;;;3.93;2.00;;;;;;;-1.46;100.00;99236.53;5090332;28;20459;-60
2023/12/10 04:31:43;;;;;;;1.77;1.17;;;;;;;-1.52;100.00;99235.00;5090359;28;20202;-60
2023/12/10 04:34:10;;;;;;;0.93;0.80;;;;;;;-1.40;100.00;99228.88;5090369;28;20198;-61
2023/12/10 04:36:37;;;;;;;2.37;2.00;;;;;;;-1.28;100.00;99238.69;5090293;28;20198;-60
2023/12/10 04:39:04;;;;;;;1.50;1.10;;;;;;;-1.30;100.00;99234.56;5090034;28;20745;-60
2023/12/10 04:41:31;;;;;;;0.90;0.90;;;;;;;-1.35;100.00;99242.16;5090452;28;20202;-61
2023/12/10 04:43:59;;;;;;;3.03;2.30;;;;;;;-1.34;100.00;99243.81;5090092;28;20212;-61
2023/12/10 04:46:26;;;;;;;4.80;3.43;;;;;;;-1.30;100.00;99234.56;5090297;28;20483;-60
2023/12/10 04:48:53;;;;;;;4.77;2.67;;;;;;;-1.30;100.00;99242.91;5090003;28;20448;-60
2023/12/10 04:51:19;;;;;;;7.10;4.27;;;;;;;-1.32;100.00;99241.28;5089887;28;20448;-61
2023/12/10 04:53:46;;;;;;;2.83;2.13;;;;;;;-1.30;100.00;99240.38;5088833;28;20198;-60
2023/12/10 04:56:13;;;;;;;2.03;1.90;;;;;;;-1.28;100.00;99246.22;5088849;28;20500;-61
2023/12/10 04:58:40;;;;;;;2.40;2.20;;;;;;;-1.21;100.00;99246.88;5089967;28;20202;-61
2023/12/10 05:01:08;;;;;;;1.97;1.67;;;;;;;-1.17;100.00;99251.78;5089912;28;20225;-60
2023/12/10 05:03:35;;;;;;;2.53;1.63;;;;;;;-1.14;100.00;99251.72;5089769;28;20701;-61
2023/12/10 05:06:03;;;;;;;5.87;2.47;;;;;;;-1.04;100.00;99252.38;5089638;28;20506;-61
2023/12/10 05:08:29;;;;;;;1.63;1.53;;;;;;;-1.03;100.00;99258.19;5088542;28;20202;-61
2023/12/10 05:10:56;;;;;;;3.03;2.13;;;;;;;-1.00;100.00;99250.59;5089520;28;20208;-61
2023/12/10 05:13:24;;;;;;;1.70;1.50;;;;;;;-1.02;100.00;99247.28;5089733;28;20213;-61
2023/12/10 05:15:51;;;;;;;2.10;2.00;;;;;;;-1.00;100.00;99240.56;5089425;28;20198;-61
2023/12/10 05:18:19;;;;;;;0.60;0.60;;;;;;;-1.04;100.00;99233.97;5089381;28;20521;-61
2023/12/10 05:20:46;;;;;;;2.10;1.33;;;;;;;-1.02;100.00;99244.78;5089303;28;20229;-61
2023/12/10 05:23:12;;;;;;;0.73;0.73;;;;;;;-1.05;100.00;99240.66;5089688;28;20202;-61
2023/12/10 05:25:39;;;;;;;2.07;1.43;;;;;;;-1.11;100.00;99248.31;5089485;28;20194;-61
2023/12/10 05:28:06;;;;;;;2.40;1.40;;;;;;;-1.03;100.00;99238.13;5089616;28;20231;-61
2023/12/10 05:30:33;;;;;;;3.80;2.23;;;;;;;-1.04;100.00;99246.53;5089430;28;20206;-61
2023/12/10 05:33:00;;;;;;;1.40;1.30;;;;;;;-1.11;100.00;99242.47;5089204;28;20204;-61
2023/12/10 05:35:28;;;;;;;2.80;2.07;;;;;;;-1.09;100.00;99245.78;5089430;28;20198;-61
2023/12/10 05:37:56;;;;;;;1.67;1.37;;;;;;;-1.26;100.00;99241.97;5089361;28;20705;-61
2023/12/10 05:40:25;;;;;;;3.87;3.10;;;;;;;-1.28;100.00;99233.66;5089201;28;20198;-61
2023/12/10 05:42:52;;;;;;;2.13;1.57;;;;;;;-1.31;100.00;99228.72;5088946;28;20205;-61
2023/12/10 05:45:19;;;;;;;0.83;0.83;;;;;;;-1.36;100.00;99225.47;5089044;28;20284;-61
2023/12/10 05:47:46;;;;;;;0.57;0.57;;;;;;;-1.45;100.00;99213.97;5089047;28;20491;-61
2023/12/10 05:50:13;;;;;;;2.70;1.77;;;;;;;-1.47;100.00;99212.34;5088924;28;20470;-60
2023/12/10 05:52:41;;;;;;;4.33;1.53;;;;;;;-1.50;100.00;99217.41;5088890;28;20440;-60
2023/12/10 05:55:09;;;;;;;6.10;1.20;;;;;;;-1.56;100.00;99217.56;5088975;28;20954;-61
2023/12/10 05:57:36;;;;;;;1.50;0.93;;;;;;;-1.72;100.00;99210.31;5088724;28;20546;-61
2023/12/10 06:00:04;;;;;;;1.73;1.37;;;;;;;-1.83;100.00;99217.25;5088654;28;20866;-60
2023/12/10 06:02:32;;;;;;;5.67;2.23;;;;;;;-1.87;100.00;99213.16;5088786;28;20444;-61
2023/12/10 06:04:59;;;;;;;2.30;1.67;;;;;;;-1.75;100.00;99222.91;5088753;28;20493;-60
2023/12/10 06:07:27;;;;;;;1.53;1.47;;;;;;;-1.72;100.00;99217.84;5088785;28;20498;-61
2023/12/10 06:09:55;;;;;;;1.23;1.13;;;;;;;-1.70;100.00;99231.19;5088479;28;20456;-60
2023/12/10 06:12:22;;;;;;;1.60;1.47;;;;;;;-1.69;100.00;99225.31;5089114;28;20991;-60
2023/12/10 06:14:49;;;;;;;0.77;0.77;;;;;;;-1.97;100.00;99229.22;5088431;28;21000;-61
2023/12/10 06:17:16;;;;;;;6.10;1.00;;;;;;;-2.06;100.00;99226.03;5088657;28;20444;-61
2023/12/10 06:19:43;;;;;;;0.80;0.80;;;;;;;-1.92;100.00;99224.94;5088221;28;20452;-61
2023/12/10 06:22:09;;;;;;;1.00;0.90;;;;;;;-1.84;100.00;99225.63;5088537;28;20454;-60
2023/12/10 06:24:36;;;;;;;6.43;2.43;;;;;;;-1.84;100.00;99233.13;5088482;28;20462;-60
2023/12/10 06:27:05;;;;;;;0.67;0.67;;;;;;;-1.79;100.00;99226.34;5088530;28;20495;-61
2023/12/10 06:29:32;;;;;;;0.87;0.87;;;;;;;-1.86;100.00;99229.84;5088715;28;20452;-61
2023/12/10 06:31:59;;;;;;;1.17;1.10;;;;;;;-1.98;100.00;99230.88;5088366;28;20513;-60
2023/12/10 06:34:26;;;;;;;2.33;1.60;;;;;;;-1.98;100.00;99222.53;5088353;28;20863;-60
2023/12/10 06:36:53;;;;;;;2.23;1.37;;;;;;;-2.06;100.00;99226.03;5088467;28;20198;-60
2023/12/10 06:39:19;;;;;;;1.70;1.47;;;;;;;-1.95;100.00;99217.47;5088440;28;20456;-60
2023/12/10 06:41:46;;;;;;;2.57;0.97;;;;;;;-1.89;100.00;99229.88;5088716;28;20448;-61
2023/12/10 06:44:21;;;;;;;1.23;1.13;;;;;;;-1.92;100.00;99238.31;5088495;28;20497;-61
2023/12/10 06:46:48;;;;;;;1.70;1.50;;;;;;;-2.02;100.00;99233.50;5088210;28;20882;-60
2023/12/10 06:49:15;;;;;;;0.97;0.73;;;;;;;-1.95;100.00;99237.53;5088319;28;20757;-60
2023/12/10 06:51:42;;;;;;;1.10;0.87;;;;;;;-1.93;100.00;99248.34;5088215;28;20961;-60
2023/12/10 06:54:10;;;;;;;1.40;1.30;;;;;;;-1.80;100.00;99249.78;5088617;28;20809;-61
2023/12/10 06:56:39;;;;;;;2.87;1.60;;;;;;;-2.02;100.00;99248.53;5088057;28;20887;-60
2023/12/10 06:59:07;;;;;;;2.03;1.40;;;;;;;-1.80;100.00;99247.28;5088131;28;20531;-61
2023/12/10 07:01:37;;;;;;;2.73;1.70;;;;;;;-1.65;100.00;99243.63;5088161;28;20452;-60
2023/12/10 07:04:04;;;;;;;2.27;1.83;;;;;;;-1.83;100.00;99244.81;5088257;28;20499;-61
2023/12/10 07:06:31;;;;;;;1.83;1.73;;;;;;;-1.65;100.00;99258.69;5087681;28;20212;-61
2023/12/10 07:08:58;;;;;;;1.47;1.10;;;;;;;-1.73;100.00;99261.31;5086271;28;21058;-60
2023/12/10 07:11:25;;;;;;;1.17;1.07;;;;;;;-1.65;100.00;99264.50;5086571;28;21085;-60
2023/12/10 07:13:53;;;;;;;0.90;0.90;;;;;;;-1.41;100.00;99262.34;5087860;28;20452;-60
2023/12/10 07:16:20;;;;;;;4.73;0.87;;;;;;;-1.42;100.00;99258.22;5087949;28;20476;-60
2023/12/10 07:18:48;;;;;;;1.23;1.20;;;;;;;-1.54;100.00;99261.78;5087925;28;20455;-61
2023/12/10 07:21:15;;;;;;;1.07;0.97;;;;;;;-1.28;100.00;99258.75;5088065;28;20455;-61
2023/12/10 07:39:54;;;;;;;2.20;1.77;;;;;;;-0.81;100.00;99307.06;5125905;27;20557;-60
2023/12/10 07:42:21;;;;;;;3.07;1.83;;;;;;;-0.69;100.00;99310.97;5126598;27;20204;-60
2023/12/10 07:44:47;;;;;;;9.47;2.03;;;;;;;-0.81;100.00;99312.09;5127072;27;20222;-61
2023/12/10 07:47:14;;;;;;;1.90;0.93;;;;;;;-1.00;100.00;99313.34;5126416;27;20197;-60
2023/12/10 07:49:42;;;;;;;3.63;1.23;;;;;;;-0.84;100.00;99322.19;5126421;27;20197;-61
2023/12/10 07:52:09;;;;;;;0.77;0.73;;;;;;;-0.94;100.00;99318.22;5126455;27;20201;-61
2023/12/10 07:54:35;;;;;;;2.87;1.47;;;;;;;-0.83;100.00;99311.28;5126179;27;20292;-60
2023/12/10 07:57:04;;;;;;;1.53;1.20;;;;;;;-0.58;100.00;99305.69;5125842;27;20197;-60
2023/12/10 07:59:31;;;;;;;2.07;0.70;;;;;;;-0.71;100.00;99298.44;5125692;27;20204;-60
2023/12/10 08:01:58;;;;;;;4.70;1.03;;;;;;;-0.55;100.00;99301.44;5126273;27;20780;-61
2023/12/10 08:04:25;;;;;;;1.83;1.73;;;;;;;-0.57;100.00;99307.34;5126317;27;20197;-61
2023/12/10 08:06:52;;;;;;;0.70;0.70;;;;;;;-0.52;100.00;99298.03;5126594;27;20204;-61
2023/12/10 08:09:19;;;;;;;1.77;1.43;;;;;;;-0.59;100.00;99294.00;5126181;27;20232;-60
2023/12/10 08:11:46;;;;;;;6.80;3.23;;;;;;;-0.65;100.00;99301.69;5126171;27;20193;-60
2023/12/10 08:14:14;;;;;;;2.00;1.80;;;;;;;-0.62;100.00;99309.16;5126133;27;20220;-59
2023/12/10 08:16:41;;;;;;;0.77;0.77;;;;;;;-0.53;100.00;99304.72;5125790;27;20204;-60
2023/12/10 08:19:09;;;;;;;4.77;1.93;;;;;;;-0.46;100.00;99310.44;5126247;27;20237;-60
2023/12/10 08:21:36;;;;;;;1.87;1.33;;;;;;;-0.44;100.00;99313.72;5125955;27;20196;-60
2023/12/10 08:24:03;;;;;;;1.60;1.50;;;;;;;-0.38;100.00;99313.56;5126264;27;20691;-60
2023/12/10 08:26:30;;;;;;;2.60;0.83;;;;;;;-0.40;100.00;99320.34;5125681;27;20757;-60
2023/12/10 08:28:57;;;;;;;0.70;0.70;;;;;;;-0.42;100.00;99314.53;5125602;27;20704;-61
2023/12/10 08:31:25;;;;;;;3.47;1.63;;;;;;;-0.33;100.00;99308.44;5125544;27;20579;-61
2023/12/10 08:33:52;;;;;;;2.50;1.30;;;;;;;-0.46;100.00;99306.25;5125637;27;20200;-60
2023/12/10 08:36:19;;;;;;;0.77;0.77;;;;;;;-0.29;100.00;99303.31;5125626;27;20688;-60
2023/12/10 08:38:46;;;;;;;6.37;3.10;;;;;;;-0.78;100.00;99309.50;5123388;27;20231;-60
2023/12/10 08:41:13;;;;;;;2.67;2.47;;;;;;;-0.59;100.00;99304.03;5111822;28;20207;-60
2023/12/10 08:43:39;;;;;;;3.63;1.77;;;;;;;-0.90;100.00;99304.75;5111542;28;20197;-61
2023/12/10 08:46:07;;;;;;;3.47;2.23;;;;;;;-0.64;100.00;99295.78;5111688;28;20193;-60
2023/12/10 08:48:36;;;;;;;1.40;1.23;;;;;;;-0.71;100.00;99307.66;5111484;28;20225;-60
2023/12/10 08:51:03;;;;;;;1.50;1.40;;;;;;;-0.63;100.00;99299.97;5111890;28;20224;-60
2023/12/10 08:53:30;;;;;;;0.57;0.57;;;;;;;-0.66;100.00;99305.88;5111468;28;20201;-60
2023/12/10 08:55:57;;;;;;;3.37;2.20;;;;;;;-0.62;100.00;99296.59;5111511;28;20208;-60
2023/12/10 08:58:25;;;;;;;1.13;1.00;;;;;;;-0.38;100.00;99297.69;5111439;28;20228;-60
2023/12/10 09:00:51;;;;;;;0.77;0.63;;;;;;;-0.29;100.00;99298.31;5111530;28;20737;-61
2023/12/10 09:03:18;;;;;;;2.40;1.10;;;;;;;-0.16;100.00;99295.47;5111020;28;20197;-61
2023/12/10 09:05:46;;;;;;;2.17;1.97;;;;;;;-0.14;100.00;99291.25;5111598;28;20554;-61
2023/12/10 09:08:13;;;;;;;3.47;1.50;;;;;;;-0.07;100.00;99296.06;5111254;28;20229;-61
2023/12/10 09:10:40;;;;;;;1.30;1.20;;;;;;;-0.13;100.00;99283.66;5111063;28;20665;-61
2023/12/10 09:13:07;;;;;;;1.50;1.40;;;;;;;-0.40;100.00;99290.19;5111207;28;20560;-60
2023/12/10 09:15:34;;;;;;;1.30;1.30;;;;;;;-0.55;100.00;99293.09;5111049;28;20601;-61
2023/12/10 09:18:01;;;;;;;3.50;2.10;;;;;;;-0.50;100.00;99284.56;5109567;28;20563;-61
2023/12/10 09:20:28;;;;;;;7.47;1.70;;;;;;;-0.74;100.00;99270.91;5109435;28;20200;-60
2023/12/10 09:22:56;;;;;;;1.70;1.17;;;;;;;-0.76;100.00;99276.81;5110729;28;20310;-61
2023/12/10 09:25:23;;;;;;;9.53;1.17;;;;;;;-0.52;100.00;99272.91;5110955;28;20197;-60
2023/12/10 09:27:50;;;;;;;1.50;1.30;;;;;;;-0.58;100.00;99280.56;5110871;28;20242;-60
2023/12/10 09:30:17;;;;;;;1.33;1.23;;;;;;;-0.84;100.00;99279.53;5110877;28;20201;-60
2023/12/10 09:32:44;;;;;;;0.80;0.77;;;;;;;-0.97;100.00;99278.13;5110797;28;20198;-60
2023/12/10 09:35:11;;;;;;;3.27;2.07;;;;;;;-0.62;100.00;99268.97;5110871;27;20228;-60
2023/12/10 09:37:38;;;;;;;1.80;1.67;;;;;;;-0.64;100.00;99265.66;5110696;28;20212;-60
2023/12/10 09:40:07;;;;;;;1.83;1.70;;;;;;;-0.80;100.00;99273.56;5110640;28;20186;-60
2023/12/10 09:42:34;;;;;;;0.93;0.93;;;;;;;-0.60;100.00;99269.75;5110469;28;20197;-60
2023/12/10 09:45:01;;;;;;;4.63;2.47;;;;;;;-0.55;100.00;99260.44;5110869;28;20205;-60
2023/12/10 09:47:30;;;;;;;3.23;1.97;;;;;;;-0.58;100.00;99261.34;5110445;28;20290;-60
2023/12/10 09:49:59;;;;;;;1.20;1.07;;;;;;;-0.49;100.00;99266.13;5110343;28;20239;-60
2023/12/10 09:52:26;;;;;;;4.03;1.23;;;;;;;-0.52;100.00;99260.38;5110076;28;20213;-60
2023/12/10 09:54:54;;;;;;;2.00;1.13;;;;;;;-0.42;100.00;99276.03;5110387;28;20260;-60
2023/12/10 09:57:22;;;;;;;0.63;0.63;;;;;;;-0.33;100.00;99271.59;5110756;28;20692;-60
2023/12/10 09:59:49;;;;;;;1.17;1.07;;;;;;;-0.38;100.00;99263.34;5110425;28;20198;-61
2023/12/10 10:02:17;;;;;;;0.77;0.50;;;;;;;-0.33;100.00;99270.78;5110693;28;20339;-61
2023/12/10 10:04:44;;;;;;;1.67;1.43;;;;;;;-0.42;100.00;99264.28;5110130;28;20236;-61
2023/12/10 10:07:13;;;;;;;1.60;1.50;;;;;;;-0.26;100.00;99268.06;5109056;28;20204;-60
2023/12/10 10:09:40;;;;;;;1.73;1.10;;;;;;;-0.12;100.00;99266.88;5108640;28;20262;-61
2023/12/10 10:12:07;;;;;;;1.97;1.73;;;;;;;-0.16;100.00;99268.66;5110043;28;20203;-60
2023/12/10 10:14:36;;;;;;;2.37;2.17;;;;;;;-0.05;100.00;99253.31;5109600;28;20654;-62
2023/12/10 10:17:04;;;;;;;0.93;0.80;;;;;;;0.04;100.00;99260.59;5109678;28;20693;-62
2023/12/10 10:36:46;;;;;;;2.77;2.17;;;;;;;0.42;100.00;99251.19;5125725;27;20591;-61
2023/12/10 10:39:13;;;;;;;3.47;2.10;;;;;;;0.21;100.00;99250.91;5126224;27;20604;-62
2023/12/10 10:41:42;;;;;;;4.37;2.37;;;;;;;0.17;100.00;99246.81;5126522;27;20207;-62
2023/12/10 10:44:09;;;;;;;1.63;1.53;;;;;;;0.24;100.00;99246.69;5126616;27;20229;-62
2023/12/10 10:46:37;;;;;;;2.73;2.03;;;;;;;0.13;100.00;99240.25;5126500;27;20197;-62
2023/12/10 10:49:04;;;;;;;1.90;1.73;;;;;;;-0.02;100.00;99244.00;5126677;27;20234;-63
2023/12/10 10:51:33;;;;;;;6.00;2.57;;;;;;;-0.10;100.00;99232.50;5126122;27;20203;-63
2023/12/10 10:54:04;;;;;;;1.47;1.20;;;;;;;0.14;100.00;99231.81;5125818;27;20204;-62
2023/12/10 10:56:32;;;;;;;2.37;1.10;;;;;;;0.28;100.00;99238.16;5125701;27;20481;-63
2023/12/10 10:59:00;;;;;;;3.60;1.23;;;;;;;0.15;100.00;99238.50;5126217;27;20715;-62
2023/12/10 11:01:43;;;;;;;2.03;1.67;;;;;;;0.32;100.00;99239.72;5126311;27;20200;-62
2023/12/10 11:04:13;;;;;;;3.80;2.37;;;;;;;0.18;100.00;99243.47;5126044;27;20197;-62
2023/12/10 11:06:41;;;;;;;1.40;0.97;;;;;;;0.08;100.00;99229.47;5126307;27;20677;-62
2023/12/10 11:09:09;;;;;;;1.60;1.50;;;;;;;0.20;100.00;99231.69;5125853;27;20200;-62
2023/12/10 11:11:40;;;;;;;1.80;1.60;;;;;;;0.17;100.00;99228.41;5105481;28;20696;-62
2023/12/10 11:14:19;;;;;;;0.53;0.53;;;;;;;0.26;100.00;99219.78;5105596;28;20208;-62
2023/12/10 11:16:50;;;;;;;2.80;1.47;;;;;;;0.29;100.00;99219.69;5105205;28;20200;-62
2023/12/10 11:19:18;;;;;;;1.83;1.63;;;;;;;0.21;100.00;99213.19;5105253;28;20201;-62
2023/12/10 11:21:45;;;;;;;2.17;1.97;;;;;;;0.18;100.00;99222.53;5105240;28;20205;-62
2023/12/10 11:24:13;;;;;;;4.30;2.27;;;;;;;0.17;100.00;99216.66;5105124;28;20215;-62
2023/12/10 11:26:40;;;;;;;3.00;2.27;;;;;;;0.17;100.00;99211.63;5105108;28;20208;-63
2023/12/10 11:29:07;;;;;;;1.30;1.20;;;;;;;0.07;100.00;99215.28;5105090;28;20700;-62
2023/12/10 11:31:34;;;;;;;1.50;1.37;;;;;;;0.13;100.00;99212.59;5105237;28;20197;-61
2023/12/10 11:34:01;;;;;;;3.17;1.93;;;;;;;0.14;100.00;99211.72;5105313;28;20274;-62
2023/12/10 11:36:28;;;;;;;12.03;1.80;;;;;;;0.11;100.00;99208.47;5097719;28;20245;-62
2023/12/10 11:38:55;;;;;;;2.33;1.80;;;;;;;0.05;100.00;99201.91;5091402;28;20198;-62
2023/12/10 11:41:24;;;;;;;3.07;2.43;;;;;;;0.26;100.00;99194.63;5091455;28;20323;-62
2023/12/10 11:43:50;;;;;;;1.80;1.70;;;;;;;0.44;100.00;99205.00;5091182;28;20210;-62
2023/12/10 11:46:21;;;;;;;4.80;2.50;;;;;;;0.52;100.00;99192.19;5091297;28;20229;-62
2023/12/10 11:48:48;;;;;;;5.93;2.93;;;;;;;0.64;100.00;99191.00;5091326;28;20399;-62
2023/12/10 11:51:17;;;;;;;2.73;1.77;;;;;;;0.64;100.00;99196.88;5091133;28;20590;-62
2023/12/10 11:53:44;;;;;;;2.97;2.77;;;;;;;0.62;100.00;99188.53;5091236;28;20209;-63
2023/12/10 11:56:11;;;;;;;5.73;2.33;;;;;;;0.73;100.00;99194.94;5090940;28;20226;-62
2023/12/10 11:58:42;;;;;;;2.37;2.13;;;;;;;0.73;100.00;99194.94;5090950;28;20198;-62
2023/12/10 12:01:09;;;;;;;2.27;2.07;;;;;;;0.58;100.00;99198.72;5090963;28;20635;-62